Greater Kankakee Airport Kankakee US
ICAO: KIKK
IATA: IKK
Category: Medium
Scheduled Services: No

Elevation: 630 ft
TransAlt. 18000 ft.

Airport Communications:
AWOS 3:111.6
CHICAGO CNTR:132.5
KANKAKEE RDO:122.2
CTAF/UNICOM:123

KIKK Zoom In..

Runways:

(A) RW 04 length 5981 ft width 100 ft
ILS 108.70 / hdg 38

(B) RW 16 length 4398 ft width 75 ft
---- / hdg 161

(C) RW 22 length 5981 ft width 100 ft
---- / hdg 218

(D) RW 34 length 4398 ft width 75 ft
---- / hdg 341

Location; KIKK
Day. 19 / Time. 20.55 Zulu
* Altimeter: 29.92
* Temperature: 28° c. 82.4°f.
* Wind from: 180° Speed 07 kn.
Dewpoint: 16° c.
Visibility: 10 Statute Miles.
Clouds: Scattered 12000 ft.

KIKK 192055Z AUTO 18007KT 10SM SCT120 28/16 A2992 RMK AO2 T02760155


Wind From 180°
Speed 07 kn.

 
 
jpsmedia.com for Web Design worldairports.se 2018   terms of use